Aérodrome :
LOGIN :

S'inscrire | Disclaimer

   EN    FR    IT 

 










Légende :    VFR   VFR Marginal   IFR   IFR Intensif   IFR Très Intensif
Visi : 
Plafond : 
>= 8 km
>= 3000ft
5 à 8 km
1000 à 3000 ft
1500m à 5 km
500 à 1000 ft
800 à 1500m
200 à 500 ft
< 800m
< 200 ft
Symboles :   Orages  Brouillard  Fortes neiges  Fortes précipitations  Vent > 20 kt
SIGMETs :   Divers  Orages  Givrage  Turbulence  Onde Orograph.  Cendres Volcan.






- Altitude de l'aérodrome : 158 ft
- Code IATA : QAR


EHDL - Deelen Airbase

DERNIER METAR :
  • 262225Z AUTO 20007KT 120V240 9999 OVC079 03/01 Q1016 BLU

METARs EXPIRÉS :
  • 262155Z AUTO 19007KT 140V250 9999 BKN083 OVC088 03/02 Q1016 BLU
  • 262125Z AUTO 20007KT 140V230 9999 OVC089 03/02 Q1016 BLU
  • 262055Z AUTO 20007KT 150V240 9999 OVC076 03/01 Q1016 BLU
  • 262025Z AUTO 20006KT 150V220 9999 BKN080 OVC086 03/01 Q1016 BLU
  • 261955Z AUTO 19006KT 130V190 9999 OVC091 03/01 Q1016 BLU
  • 261925Z AUTO 20005KT 9999 OVC100 02/01 Q1017 BLU

Prévision TAF périmée.



MET'MAP, la Météo Aéronautique d'un coup d'oeil ! - Copyright ORBIFLY Décembre 2007 - Disclaimer

ORBIFLY MET'MAP TEAM :

Programmation & Développement : Alexandra Zaïnal
Sur une idée originale de : Baudouin d'Aumeries
Assistance à la programmation : Marc-Olivier Méhu
Soutien technique & logistique : Manuel Goepfert

Contact : metmap@orbifly.com




SOURCES & CREDITS :

   NOAA